sensor_id;sensor_type;location;lat;lon;timestamp;P1;durP1;ratioP1;P2;durP2;ratioP2
54683;SDS011;40582;53.100;6.686;2022-12-18T00:01:57;101.07;;;52.95;;
54683;SDS011;40582;53.100;6.686;2022-12-18T00:04:24;104.97;;;52.83;;
54683;SDS011;40582;53.100;6.686;2022-12-18T00:06:51;97.28;;;51.08;;
54683;SDS011;40582;53.100;6.686;2022-12-18T00:09:17;98.20;;;50.72;;
54683;SDS011;40582;53.100;6.686;2022-12-18T00:11:43;105.38;;;52.22;;
54683;SDS011;40582;53.100;6.686;2022-12-18T00:14:10;97.47;;;50.65;;
54683;SDS011;40582;53.100;6.686;2022-12-18T00:16:37;105.88;;;52.40;;
54683;SDS011;40582;53.100;6.686;2022-12-18T00:19:03;104.78;;;53.67;;
54683;SDS011;40582;53.100;6.686;2022-12-18T00:21:30;106.05;;;52.30;;
54683;SDS011;40582;53.100;6.686;2022-12-18T00:23:57;101.88;;;51.05;;
54683;SDS011;40582;53.100;6.686;2022-12-18T00:26:24;104.63;;;52.67;;
54683;SDS011;40582;53.100;6.686;2022-12-18T00:28:57;104.05;;;53.55;;
54683;SDS011;40582;53.100;6.686;2022-12-18T00:31:24;107.10;;;53.75;;
54683;SDS011;40582;53.100;6.686;2022-12-18T00:33:51;104.03;;;52.22;;
54683;SDS011;40582;53.100;6.686;2022-12-18T00:36:19;109.03;;;53.65;;
54683;SDS011;40582;53.100;6.686;2022-12-18T00:38:47;108.72;;;56.33;;
54683;SDS011;40582;53.100;6.686;2022-12-18T00:41:14;121.45;;;57.42;;
54683;SDS011;40582;53.100;6.686;2022-12-18T00:44:00;123.07;;;58.53;;
54683;SDS011;40582;53.100;6.686;2022-12-18T00:46:26;106.70;;;52.55;;
54683;SDS011;40582;53.100;6.686;2022-12-18T00:48:52;107.53;;;52.95;;
54683;SDS011;40582;53.100;6.686;2022-12-18T00:51:18;103.43;;;53.15;;
54683;SDS011;40582;53.100;6.686;2022-12-18T00:53:43;109.25;;;52.40;;
54683;SDS011;40582;53.100;6.686;2022-12-18T00:56:09;105.45;;;52.65;;
54683;SDS011;40582;53.100;6.686;2022-12-18T00:58:35;102.05;;;52.17;;
54683;SDS011;40582;53.100;6.686;2022-12-18T01:01:00;94.22;;;49.78;;
54683;SDS011;40582;53.100;6.686;2022-12-18T01:03:26;108.85;;;53.72;;
54683;SDS011;40582;53.100;6.686;2022-12-18T01:05:52;97.63;;;50.95;;
54683;SDS011;40582;53.100;6.686;2022-12-18T01:08:17;99.63;;;52.58;;
54683;SDS011;40582;53.100;6.686;2022-12-18T01:10:43;93.88;;;51.00;;
54683;SDS011;40582;53.100;6.686;2022-12-18T01:13:08;111.82;;;54.00;;
54683;SDS011;40582;53.100;6.686;2022-12-18T01:15:34;103.13;;;51.50;;
54683;SDS011;40582;53.100;6.686;2022-12-18T01:18:00;110.85;;;52.00;;
54683;SDS011;40582;53.100;6.686;2022-12-18T01:20:25;104.75;;;51.97;;
54683;SDS011;40582;53.100;6.686;2022-12-18T01:22:51;103.68;;;52.13;;
54683;SDS011;40582;53.100;6.686;2022-12-18T01:25:17;103.60;;;52.95;;
54683;SDS011;40582;53.100;6.686;2022-12-18T01:27:42;106.90;;;52.35;;
54683;SDS011;40582;53.100;6.686;2022-12-18T01:30:08;114.90;;;56.03;;
54683;SDS011;40582;53.100;6.686;2022-12-18T01:32:34;109.93;;;54.85;;
54683;SDS011;40582;53.100;6.686;2022-12-18T01:35:00;112.38;;;54.47;;
54683;SDS011;40582;53.100;6.686;2022-12-18T01:37:26;117.07;;;55.80;;
54683;SDS011;40582;53.100;6.686;2022-12-18T01:39:52;112.82;;;52.78;;
54683;SDS011;40582;53.100;6.686;2022-12-18T01:42:19;105.90;;;52.47;;
54683;SDS011;40582;53.100;6.686;2022-12-18T01:49:57;107.50;;;53.10;;
54683;SDS011;40582;53.100;6.686;2022-12-18T01:52:26;108.65;;;53.70;;
54683;SDS011;40582;53.100;6.686;2022-12-18T01:54:54;104.82;;;51.22;;
54683;SDS011;40582;53.100;6.686;2022-12-18T01:57:20;106.13;;;52.25;;
54683;SDS011;40582;53.100;6.686;2022-12-18T01:59:47;100.95;;;51.47;;
54683;SDS011;40582;53.100;6.686;2022-12-18T02:02:17;108.07;;;53.58;;
54683;SDS011;40582;53.100;6.686;2022-12-18T02:04:44;106.70;;;52.60;;
54683;SDS011;40582;53.100;6.686;2022-12-18T02:07:32;109.93;;;54.70;;
54683;SDS011;40582;53.100;6.686;2022-12-18T02:10:14;110.13;;;54.63;;
54683;SDS011;40582;53.100;6.686;2022-12-18T02:12:51;117.18;;;56.15;;
54683;SDS011;40582;53.100;6.686;2022-12-18T02:15:43;120.55;;;58.03;;
54683;SDS011;40582;53.100;6.686;2022-12-18T02:18:21;122.40;;;58.47;;
54683;SDS011;40582;53.100;6.686;2022-12-18T02:21:11;115.55;;;56.97;;
54683;SDS011;40582;53.100;6.686;2022-12-18T02:26:49;125.15;;;60.28;;
54683;SDS011;40582;53.100;6.686;2022-12-18T02:29:20;133.57;;;62.47;;
54683;SDS011;40582;53.100;6.686;2022-12-18T02:31:53;124.05;;;59.42;;
54683;SDS011;40582;53.100;6.686;2022-12-18T02:34:28;116.40;;;56.28;;
54683;SDS011;40582;53.100;6.686;2022-12-18T02:36:56;125.50;;;58.65;;
54683;SDS011;40582;53.100;6.686;2022-12-18T02:39:25;126.18;;;59.80;;
54683;SDS011;40582;53.100;6.686;2022-12-18T02:41:52;126.35;;;59.95;;
54683;SDS011;40582;53.100;6.686;2022-12-18T02:44:18;117.68;;;58.63;;
54683;SDS011;40582;53.100;6.686;2022-12-18T02:46:48;114.47;;;58.78;;
54683;SDS011;40582;53.100;6.686;2022-12-18T02:49:29;126.90;;;60.17;;
54683;SDS011;40582;53.100;6.686;2022-12-18T02:52:01;119.78;;;60.35;;
54683;SDS011;40582;53.100;6.686;2022-12-18T02:57:48;124.55;;;60.78;;
54683;SDS011;40582;53.100;6.686;2022-12-18T03:00:37;124.97;;;59.67;;
54683;SDS011;40582;53.100;6.686;2022-12-18T03:03:16;124.70;;;59.33;;
54683;SDS011;40582;53.100;6.686;2022-12-18T03:05:51;120.82;;;60.83;;
54683;SDS011;40582;53.100;6.686;2022-12-18T03:08:31;127.55;;;60.20;;
54683;SDS011;40582;53.100;6.686;2022-12-18T03:11:07;115.50;;;57.10;;
54683;SDS011;40582;53.100;6.686;2022-12-18T03:16:10;130.88;;;59.75;;
54683;SDS011;40582;53.100;6.686;2022-12-18T03:18:53;124.70;;;59.80;;
54683;SDS011;40582;53.100;6.686;2022-12-18T03:21:23;119.00;;;57.58;;
54683;SDS011;40582;53.100;6.686;2022-12-18T03:23:53;118.60;;;57.80;;
54683;SDS011;40582;53.100;6.686;2022-12-18T03:26:21;123.82;;;57.13;;
54683;SDS011;40582;53.100;6.686;2022-12-18T03:28:51;126.40;;;59.42;;
54683;SDS011;40582;53.100;6.686;2022-12-18T03:31:30;122.95;;;58.30;;
54683;SDS011;40582;53.100;6.686;2022-12-18T03:33:58;122.57;;;56.00;;
54683;SDS011;40582;53.100;6.686;2022-12-18T03:36:28;113.45;;;54.35;;
54683;SDS011;40582;53.100;6.686;2022-12-18T03:38:54;120.13;;;53.97;;
54683;SDS011;40582;53.100;6.686;2022-12-18T03:50:20;122.43;;;54.45;;
54683;SDS011;40582;53.100;6.686;2022-12-18T03:53:00;125.20;;;54.88;;
54683;SDS011;40582;53.100;6.686;2022-12-18T03:55:37;115.03;;;53.22;;
54683;SDS011;40582;53.100;6.686;2022-12-18T03:58:04;115.00;;;51.85;;
54683;SDS011;40582;53.100;6.686;2022-12-18T04:00:32;120.88;;;53.63;;
54683;SDS011;40582;53.100;6.686;2022-12-18T04:02:59;121.82;;;53.55;;
54683;SDS011;40582;53.100;6.686;2022-12-18T04:05:26;104.05;;;50.40;;
54683;SDS011;40582;53.100;6.686;2022-12-18T04:07:54;116.72;;;52.38;;
54683;SDS011;40582;53.100;6.686;2022-12-18T04:10:22;111.95;;;51.05;;
54683;SDS011;40582;53.100;6.686;2022-12-18T04:12:48;107.35;;;51.53;;
54683;SDS011;40582;53.100;6.686;2022-12-18T04:15:13;108.60;;;47.83;;
54683;SDS011;40582;53.100;6.686;2022-12-18T04:17:42;105.03;;;50.03;;
54683;SDS011;40582;53.100;6.686;2022-12-18T04:22:40;100.15;;;46.47;;
54683;SDS011;40582;53.100;6.686;2022-12-18T04:25:06;108.43;;;49.25;;
54683;SDS011;40582;53.100;6.686;2022-12-18T04:27:32;102.65;;;48.35;;
54683;SDS011;40582;53.100;6.686;2022-12-18T04:29:58;106.90;;;46.78;;
54683;SDS011;40582;53.100;6.686;2022-12-18T04:32:24;95.70;;;47.38;;
54683;SDS011;40582;53.100;6.686;2022-12-18T04:34:49;102.55;;;48.35;;
54683;SDS011;40582;53.100;6.686;2022-12-18T04:37:15;93.22;;;46.85;;
54683;SDS011;40582;53.100;6.686;2022-12-18T04:39:41;103.30;;;46.00;;
54683;SDS011;40582;53.100;6.686;2022-12-18T04:42:06;101.20;;;49.40;;
54683;SDS011;40582;53.100;6.686;2022-12-18T04:44:32;100.57;;;47.13;;
54683;SDS011;40582;53.100;6.686;2022-12-18T04:46:58;97.45;;;46.00;;
54683;SDS011;40582;53.100;6.686;2022-12-18T04:49:23;91.05;;;44.17;;
54683;SDS011;40582;53.100;6.686;2022-12-18T04:51:49;98.03;;;46.08;;
54683;SDS011;40582;53.100;6.686;2022-12-18T04:54:15;91.10;;;45.67;;
54683;SDS011;40582;53.100;6.686;2022-12-18T04:56:40;102.45;;;46.50;;
54683;SDS011;40582;53.100;6.686;2022-12-18T04:59:06;87.90;;;44.47;;
54683;SDS011;40582;53.100;6.686;2022-12-18T05:01:32;91.03;;;44.88;;
54683;SDS011;40582;53.100;6.686;2022-12-18T05:03:59;95.63;;;43.95;;
54683;SDS011;40582;53.100;6.686;2022-12-18T05:06:25;88.03;;;42.88;;
54683;SDS011;40582;53.100;6.686;2022-12-18T05:08:51;89.40;;;44.70;;
54683;SDS011;40582;53.100;6.686;2022-12-18T05:11:16;93.47;;;44.40;;
54683;SDS011;40582;53.100;6.686;2022-12-18T05:13:43;84.75;;;39.53;;
54683;SDS011;40582;53.100;6.686;2022-12-18T05:16:10;83.97;;;42.20;;
54683;SDS011;40582;53.100;6.686;2022-12-18T05:18:36;82.95;;;40.85;;
54683;SDS011;40582;53.100;6.686;2022-12-18T05:21:02;86.07;;;42.70;;
54683;SDS011;40582;53.100;6.686;2022-12-18T05:23:28;84.88;;;43.08;;
54683;SDS011;40582;53.100;6.686;2022-12-18T05:25:55;95.97;;;49.40;;
54683;SDS011;40582;53.100;6.686;2022-12-18T05:28:26;99.53;;;53.67;;
54683;SDS011;40582;53.100;6.686;2022-12-18T05:30:54;96.22;;;50.38;;
54683;SDS011;40582;53.100;6.686;2022-12-18T05:33:22;81.28;;;40.13;;
54683;SDS011;40582;53.100;6.686;2022-12-18T05:35:52;90.95;;;44.60;;
54683;SDS011;40582;53.100;6.686;2022-12-18T05:38:23;79.95;;;42.42;;
54683;SDS011;40582;53.100;6.686;2022-12-18T05:40:51;77.68;;;40.63;;
54683;SDS011;40582;53.100;6.686;2022-12-18T05:43:18;73.43;;;39.42;;
54683;SDS011;40582;53.100;6.686;2022-12-18T05:45:46;69.93;;;37.50;;
54683;SDS011;40582;53.100;6.686;2022-12-18T05:48:13;68.15;;;35.83;;
54683;SDS011;40582;53.100;6.686;2022-12-18T05:50:39;70.82;;;35.50;;
54683;SDS011;40582;53.100;6.686;2022-12-18T05:53:06;62.88;;;35.05;;
54683;SDS011;40582;53.100;6.686;2022-12-18T05:55:36;62.25;;;34.03;;
54683;SDS011;40582;53.100;6.686;2022-12-18T05:58:03;62.72;;;34.03;;
54683;SDS011;40582;53.100;6.686;2022-12-18T06:00:31;60.30;;;33.00;;
54683;SDS011;40582;53.100;6.686;2022-12-18T06:02:58;58.10;;;31.75;;
54683;SDS011;40582;53.100;6.686;2022-12-18T06:05:24;52.97;;;31.00;;
54683;SDS011;40582;53.100;6.686;2022-12-18T06:07:50;60.05;;;31.45;;
54683;SDS011;40582;53.100;6.686;2022-12-18T06:10:16;62.30;;;33.72;;
54683;SDS011;40582;53.100;6.686;2022-12-18T06:12:41;59.88;;;32.42;;
54683;SDS011;40582;53.100;6.686;2022-12-18T06:15:07;60.78;;;33.47;;
54683;SDS011;40582;53.100;6.686;2022-12-18T06:17:33;69.28;;;37.08;;
54683;SDS011;40582;53.100;6.686;2022-12-18T06:20:00;59.58;;;31.67;;
54683;SDS011;40582;53.100;6.686;2022-12-18T06:22:26;60.70;;;33.47;;
54683;SDS011;40582;53.100;6.686;2022-12-18T06:24:52;59.58;;;33.72;;
54683;SDS011;40582;53.100;6.686;2022-12-18T06:27:18;69.18;;;33.47;;
54683;SDS011;40582;53.100;6.686;2022-12-18T06:29:44;63.10;;;34.15;;
54683;SDS011;40582;53.100;6.686;2022-12-18T06:32:10;67.72;;;35.97;;
54683;SDS011;40582;53.100;6.686;2022-12-18T06:34:39;68.78;;;34.65;;
54683;SDS011;40582;53.100;6.686;2022-12-18T06:37:04;63.55;;;32.58;;
54683;SDS011;40582;53.100;6.686;2022-12-18T06:39:30;59.55;;;33.00;;
54683;SDS011;40582;53.100;6.686;2022-12-18T06:41:55;62.13;;;33.70;;
54683;SDS011;40582;53.100;6.686;2022-12-18T06:44:21;64.55;;;34.67;;
54683;SDS011;40582;53.100;6.686;2022-12-18T06:46:47;58.70;;;34.42;;
54683;SDS011;40582;53.100;6.686;2022-12-18T06:49:12;65.30;;;33.60;;
54683;SDS011;40582;53.100;6.686;2022-12-18T06:51:38;65.03;;;33.88;;
54683;SDS011;40582;53.100;6.686;2022-12-18T06:54:04;53.53;;;32.83;;
54683;SDS011;40582;53.100;6.686;2022-12-18T06:56:30;59.42;;;33.55;;
54683;SDS011;40582;53.100;6.686;2022-12-18T06:58:56;56.25;;;32.00;;
54683;SDS011;40582;53.100;6.686;2022-12-18T07:01:22;54.83;;;29.70;;
54683;SDS011;40582;53.100;6.686;2022-12-18T07:03:51;58.83;;;31.98;;
54683;SDS011;40582;53.100;6.686;2022-12-18T07:06:19;56.80;;;32.13;;
54683;SDS011;40582;53.100;6.686;2022-12-18T07:08:46;58.70;;;30.88;;
54683;SDS011;40582;53.100;6.686;2022-12-18T07:11:14;51.17;;;30.15;;
54683;SDS011;40582;53.100;6.686;2022-12-18T07:13:39;60.58;;;33.17;;
54683;SDS011;40582;53.100;6.686;2022-12-18T07:16:06;59.42;;;33.72;;
54683;SDS011;40582;53.100;6.686;2022-12-18T07:18:35;59.78;;;32.78;;
54683;SDS011;40582;53.100;6.686;2022-12-18T07:21:05;56.75;;;32.05;;
54683;SDS011;40582;53.100;6.686;2022-12-18T07:23:32;62.13;;;32.88;;
54683;SDS011;40582;53.100;6.686;2022-12-18T07:26:03;61.38;;;32.83;;
54683;SDS011;40582;53.100;6.686;2022-12-18T07:28:30;59.20;;;32.90;;
54683;SDS011;40582;53.100;6.686;2022-12-18T07:30:56;54.42;;;30.77;;
54683;SDS011;40582;53.100;6.686;2022-12-18T07:33:21;51.97;;;30.42;;
54683;SDS011;40582;53.100;6.686;2022-12-18T07:35:47;55.75;;;30.98;;
54683;SDS011;40582;53.100;6.686;2022-12-18T07:38:13;53.53;;;31.90;;
54683;SDS011;40582;53.100;6.686;2022-12-18T07:40:38;59.65;;;32.78;;
54683;SDS011;40582;53.100;6.686;2022-12-18T07:43:04;59.05;;;32.17;;
54683;SDS011;40582;53.100;6.686;2022-12-18T07:45:30;56.65;;;32.97;;
54683;SDS011;40582;53.100;6.686;2022-12-18T07:47:55;61.13;;;34.53;;
54683;SDS011;40582;53.100;6.686;2022-12-18T07:50:21;64.40;;;33.20;;
54683;SDS011;40582;53.100;6.686;2022-12-18T07:52:47;55.80;;;31.65;;
54683;SDS011;40582;53.100;6.686;2022-12-18T07:55:12;54.88;;;31.10;;
54683;SDS011;40582;53.100;6.686;2022-12-18T07:57:38;51.03;;;30.60;;
54683;SDS011;40582;53.100;6.686;2022-12-18T08:00:04;53.08;;;30.70;;
54683;SDS011;40582;53.100;6.686;2022-12-18T08:02:30;52.15;;;29.85;;
54683;SDS011;40582;53.100;6.686;2022-12-18T08:04:56;54.10;;;31.63;;
54683;SDS011;40582;53.100;6.686;2022-12-18T08:07:23;52.00;;;30.45;;
54683;SDS011;40582;53.100;6.686;2022-12-18T08:09:48;52.45;;;31.00;;
54683;SDS011;40582;53.100;6.686;2022-12-18T08:12:14;51.15;;;30.23;;
54683;SDS011;40582;53.100;6.686;2022-12-18T08:14:40;49.35;;;28.48;;
54683;SDS011;40582;53.100;6.686;2022-12-18T08:17:05;51.20;;;29.83;;
54683;SDS011;40582;53.100;6.686;2022-12-18T08:19:31;51.05;;;29.55;;
54683;SDS011;40582;53.100;6.686;2022-12-18T08:21:58;55.47;;;30.10;;
54683;SDS011;40582;53.100;6.686;2022-12-18T08:24:23;45.45;;;29.00;;
54683;SDS011;40582;53.100;6.686;2022-12-18T08:26:49;52.65;;;30.10;;
54683;SDS011;40582;53.100;6.686;2022-12-18T08:29:15;47.95;;;28.77;;
54683;SDS011;40582;53.100;6.686;2022-12-18T08:31:41;48.38;;;29.02;;
54683;SDS011;40582;53.100;6.686;2022-12-18T08:34:07;50.15;;;29.85;;
54683;SDS011;40582;53.100;6.686;2022-12-18T08:36:33;49.20;;;30.45;;
54683;SDS011;40582;53.100;6.686;2022-12-18T08:38:58;54.53;;;33.75;;
54683;SDS011;40582;53.100;6.686;2022-12-18T08:41:24;168.35;;;97.50;;
54683;SDS011;40582;53.100;6.686;2022-12-18T08:43:50;202.23;;;116.03;;
54683;SDS011;40582;53.100;6.686;2022-12-18T08:46:37;111.57;;;62.47;;
54683;SDS011;40582;53.100;6.686;2022-12-18T08:49:04;49.17;;;30.65;;
54683;SDS011;40582;53.100;6.686;2022-12-18T08:51:30;46.40;;;30.38;;
54683;SDS011;40582;53.100;6.686;2022-12-18T08:53:56;50.75;;;34.47;;
54683;SDS011;40582;53.100;6.686;2022-12-18T08:56:22;56.97;;;35.72;;
54683;SDS011;40582;53.100;6.686;2022-12-18T08:58:50;47.03;;;29.70;;
54683;SDS011;40582;53.100;6.686;2022-12-18T09:01:20;47.35;;;29.92;;
54683;SDS011;40582;53.100;6.686;2022-12-18T09:03:45;46.75;;;28.58;;
54683;SDS011;40582;53.100;6.686;2022-12-18T09:06:13;53.95;;;35.13;;
54683;SDS011;40582;53.100;6.686;2022-12-18T09:08:40;46.58;;;30.67;;
54683;SDS011;40582;53.100;6.686;2022-12-18T09:11:24;43.58;;;29.35;;
54683;SDS011;40582;53.100;6.686;2022-12-18T09:13:51;46.33;;;27.42;;
54683;SDS011;40582;53.100;6.686;2022-12-18T09:16:17;44.28;;;27.08;;
54683;SDS011;40582;53.100;6.686;2022-12-18T09:18:44;35.55;;;24.60;;
54683;SDS011;40582;53.100;6.686;2022-12-18T09:21:11;39.92;;;24.38;;
54683;SDS011;40582;53.100;6.686;2022-12-18T09:23:54;40.35;;;24.35;;
54683;SDS011;40582;53.100;6.686;2022-12-18T09:26:21;44.88;;;24.40;;
54683;SDS011;40582;53.100;6.686;2022-12-18T09:28:47;78.43;;;52.13;;
54683;SDS011;40582;53.100;6.686;2022-12-18T09:31:13;93.22;;;58.58;;
54683;SDS011;40582;53.100;6.686;2022-12-18T09:33:39;48.60;;;29.63;;
54683;SDS011;40582;53.100;6.686;2022-12-18T09:36:05;45.15;;;29.73;;
54683;SDS011;40582;53.100;6.686;2022-12-18T09:38:33;45.78;;;27.80;;
54683;SDS011;40582;53.100;6.686;2022-12-18T09:41:04;217.38;;;98.07;;
54683;SDS011;40582;53.100;6.686;2022-12-18T09:43:54;130.98;;;63.47;;
54683;SDS011;40582;53.100;6.686;2022-12-18T09:46:44;98.40;;;54.17;;
54683;SDS011;40582;53.100;6.686;2022-12-18T09:49:16;33.47;;;20.88;;
54683;SDS011;40582;53.100;6.686;2022-12-18T09:54:24;42.95;;;26.55;;
54683;SDS011;40582;53.100;6.686;2022-12-18T09:56:54;29.73;;;19.53;;
54683;SDS011;40582;53.100;6.686;2022-12-18T09:59:38;31.08;;;20.65;;
54683;SDS011;40582;53.100;6.686;2022-12-18T10:02:13;33.75;;;22.45;;
54683;SDS011;40582;53.100;6.686;2022-12-18T10:04:39;29.17;;;19.85;;
54683;SDS011;40582;53.100;6.686;2022-12-18T10:07:12;22.63;;;16.08;;
54683;SDS011;40582;53.100;6.686;2022-12-18T10:12:41;25.08;;;17.02;;
54683;SDS011;40582;53.100;6.686;2022-12-18T10:15:28;24.42;;;16.67;;
54683;SDS011;40582;53.100;6.686;2022-12-18T10:20:56;22.00;;;16.08;;
54683;SDS011;40582;53.100;6.686;2022-12-18T10:23:36;23.88;;;16.38;;
54683;SDS011;40582;53.100;6.686;2022-12-18T10:26:09;20.25;;;14.48;;
54683;SDS011;40582;53.100;6.686;2022-12-18T10:28:36;26.00;;;15.52;;
54683;SDS011;40582;53.100;6.686;2022-12-18T10:31:17;23.23;;;14.50;;
54683;SDS011;40582;53.100;6.686;2022-12-18T10:33:47;22.75;;;16.15;;
54683;SDS011;40582;53.100;6.686;2022-12-18T10:36:13;21.38;;;15.65;;
54683;SDS011;40582;53.100;6.686;2022-12-18T10:38:39;19.67;;;13.20;;
54683;SDS011;40582;53.100;6.686;2022-12-18T10:41:06;19.05;;;12.98;;
54683;SDS011;40582;53.100;6.686;2022-12-18T10:46:37;20.42;;;13.35;;
54683;SDS011;40582;53.100;6.686;2022-12-18T10:49:03;19.30;;;13.07;;
54683;SDS011;40582;53.100;6.686;2022-12-18T10:51:33;19.65;;;13.90;;
54683;SDS011;40582;53.100;6.686;2022-12-18T10:54:02;18.48;;;12.00;;
54683;SDS011;40582;53.100;6.686;2022-12-18T10:56:31;17.23;;;12.40;;
54683;SDS011;40582;53.100;6.686;2022-12-18T10:59:06;17.23;;;12.13;;
54683;SDS011;40582;53.100;6.686;2022-12-18T11:04:16;22.00;;;15.02;;
54683;SDS011;40582;53.100;6.686;2022-12-18T11:06:54;16.60;;;11.65;;
54683;SDS011;40582;53.100;6.686;2022-12-18T11:09:31;19.52;;;14.60;;
54683;SDS011;40582;53.100;6.686;2022-12-18T11:12:00;22.13;;;14.10;;
54683;SDS011;40582;53.100;6.686;2022-12-18T11:17:18;17.67;;;12.43;;
54683;SDS011;40582;53.100;6.686;2022-12-18T11:19:53;18.00;;;12.85;;
54683;SDS011;40582;53.100;6.686;2022-12-18T11:22:22;16.52;;;11.40;;
54683;SDS011;40582;53.100;6.686;2022-12-18T11:24:58;16.88;;;11.63;;
54683;SDS011;40582;53.100;6.686;2022-12-18T11:27:30;19.10;;;11.32;;
54683;SDS011;40582;53.100;6.686;2022-12-18T11:30:13;15.02;;;10.75;;
54683;SDS011;40582;53.100;6.686;2022-12-18T11:33:09;18.98;;;13.18;;
54683;SDS011;40582;53.100;6.686;2022-12-18T11:35:42;19.30;;;12.63;;
54683;SDS011;40582;53.100;6.686;2022-12-18T11:40:40;19.08;;;12.48;;
54683;SDS011;40582;53.100;6.686;2022-12-18T11:43:17;19.98;;;13.48;;
54683;SDS011;40582;53.100;6.686;2022-12-18T11:48:33;15.35;;;10.82;;
54683;SDS011;40582;53.100;6.686;2022-12-18T11:51:26;16.73;;;10.02;;
54683;SDS011;40582;53.100;6.686;2022-12-18T11:53:57;18.88;;;10.23;;
54683;SDS011;40582;53.100;6.686;2022-12-18T11:56:39;14.60;;;10.57;;
54683;SDS011;40582;53.100;6.686;2022-12-18T12:04:30;16.55;;;9.75;;
54683;SDS011;40582;53.100;6.686;2022-12-18T12:09:57;15.00;;;9.23;;
54683;SDS011;40582;53.100;6.686;2022-12-18T12:17:54;17.23;;;9.60;;
54683;SDS011;40582;53.100;6.686;2022-12-18T12:21:00;16.05;;;10.60;;
54683;SDS011;40582;53.100;6.686;2022-12-18T12:25:55;17.23;;;11.10;;
54683;SDS011;40582;53.100;6.686;2022-12-18T12:28:56;23.17;;;12.48;;
54683;SDS011;40582;53.100;6.686;2022-12-18T12:34:31;93.95;;;49.80;;
54683;SDS011;40582;53.100;6.686;2022-12-18T12:37:25;14.27;;;9.73;;
54683;SDS011;40582;53.100;6.686;2022-12-18T12:40:05;11.52;;;8.52;;
54683;SDS011;40582;53.100;6.686;2022-12-18T12:42:32;15.80;;;9.57;;
54683;SDS011;40582;53.100;6.686;2022-12-18T12:45:23;15.45;;;10.73;;
54683;SDS011;40582;53.100;6.686;2022-12-18T12:47:55;17.83;;;11.32;;
54683;SDS011;40582;53.100;6.686;2022-12-18T12:50:23;17.73;;;10.38;;
54683;SDS011;40582;53.100;6.686;2022-12-18T12:52:53;16.60;;;10.30;;
54683;SDS011;40582;53.100;6.686;2022-12-18T12:55:21;17.13;;;10.40;;
54683;SDS011;40582;53.100;6.686;2022-12-18T12:58:05;13.88;;;9.27;;
54683;SDS011;40582;53.100;6.686;2022-12-18T13:00:40;15.18;;;9.35;;
54683;SDS011;40582;53.100;6.686;2022-12-18T13:06:09;13.77;;;9.48;;
54683;SDS011;40582;53.100;6.686;2022-12-18T13:08:59;12.02;;;8.82;;
54683;SDS011;40582;53.100;6.686;2022-12-18T13:11:28;14.27;;;10.23;;
54683;SDS011;40582;53.100;6.686;2022-12-18T13:14:24;17.52;;;10.23;;
54683;SDS011;40582;53.100;6.686;2022-12-18T13:20:08;21.35;;;12.52;;
54683;SDS011;40582;53.100;6.686;2022-12-18T13:22:44;14.80;;;10.50;;
54683;SDS011;40582;53.100;6.686;2022-12-18T13:25:27;16.48;;;10.43;;
54683;SDS011;40582;53.100;6.686;2022-12-18T13:28:15;19.02;;;10.35;;
54683;SDS011;40582;53.100;6.686;2022-12-18T13:30:54;19.02;;;12.95;;
54683;SDS011;40582;53.100;6.686;2022-12-18T13:33:30;20.65;;;14.13;;
54683;SDS011;40582;53.100;6.686;2022-12-18T13:44:36;17.88;;;11.73;;
54683;SDS011;40582;53.100;6.686;2022-12-18T13:47:24;16.42;;;9.63;;
54683;SDS011;40582;53.100;6.686;2022-12-18T13:49:51;14.00;;;9.75;;
54683;SDS011;40582;53.100;6.686;2022-12-18T13:52:21;13.13;;;9.30;;
54683;SDS011;40582;53.100;6.686;2022-12-18T13:54:53;33.75;;;20.30;;
54683;SDS011;40582;53.100;6.686;2022-12-18T13:57:27;51.65;;;33.65;;
54683;SDS011;40582;53.100;6.686;2022-12-18T13:59:55;14.48;;;10.60;;
54683;SDS011;40582;53.100;6.686;2022-12-18T14:02:23;20.20;;;13.18;;
54683;SDS011;40582;53.100;6.686;2022-12-18T14:04:50;13.20;;;9.13;;
54683;SDS011;40582;53.100;6.686;2022-12-18T14:07:26;16.75;;;11.35;;
54683;SDS011;40582;53.100;6.686;2022-12-18T14:09:58;21.83;;;16.70;;
54683;SDS011;40582;53.100;6.686;2022-12-18T14:17:46;16.73;;;11.15;;
54683;SDS011;40582;53.100;6.686;2022-12-18T14:20:13;14.98;;;10.15;;
54683;SDS011;40582;53.100;6.686;2022-12-18T14:22:42;13.73;;;9.48;;
54683;SDS011;40582;53.100;6.686;2022-12-18T14:27:41;14.45;;;10.05;;
54683;SDS011;40582;53.100;6.686;2022-12-18T14:30:27;16.27;;;10.25;;
54683;SDS011;40582;53.100;6.686;2022-12-18T14:33:03;14.02;;;11.05;;
54683;SDS011;40582;53.100;6.686;2022-12-18T14:35:37;14.30;;;10.00;;
54683;SDS011;40582;53.100;6.686;2022-12-18T14:38:25;14.27;;;10.30;;
54683;SDS011;40582;53.100;6.686;2022-12-18T14:41:05;15.63;;;10.77;;
54683;SDS011;40582;53.100;6.686;2022-12-18T14:43:39;17.60;;;11.57;;
54683;SDS011;40582;53.100;6.686;2022-12-18T14:48:50;18.63;;;12.57;;
54683;SDS011;40582;53.100;6.686;2022-12-18T14:51:23;18.95;;;12.48;;
54683;SDS011;40582;53.100;6.686;2022-12-18T14:54:04;17.70;;;12.10;;
54683;SDS011;40582;53.100;6.686;2022-12-18T14:56:49;20.27;;;14.40;;
54683;SDS011;40582;53.100;6.686;2022-12-18T14:59:23;23.15;;;14.90;;
54683;SDS011;40582;53.100;6.686;2022-12-18T15:02:24;27.90;;;22.50;;
54683;SDS011;40582;53.100;6.686;2022-12-18T15:04:59;23.50;;;16.05;;
54683;SDS011;40582;53.100;6.686;2022-12-18T15:07:46;18.42;;;13.55;;
54683;SDS011;40582;53.100;6.686;2022-12-18T15:10:20;18.70;;;13.15;;
54683;SDS011;40582;53.100;6.686;2022-12-18T15:12:48;17.10;;;11.73;;
54683;SDS011;40582;53.100;6.686;2022-12-18T15:20:52;19.33;;;13.68;;
54683;SDS011;40582;53.100;6.686;2022-12-18T15:26:13;19.98;;;13.27;;
54683;SDS011;40582;53.100;6.686;2022-12-18T15:33:38;24.48;;;14.18;;
54683;SDS011;40582;53.100;6.686;2022-12-18T15:36:09;19.75;;;14.07;;
54683;SDS011;40582;53.100;6.686;2022-12-18T15:38:37;31.63;;;21.17;;
54683;SDS011;40582;53.100;6.686;2022-12-18T15:41:02;21.58;;;15.40;;
54683;SDS011;40582;53.100;6.686;2022-12-18T15:43:28;21.63;;;15.95;;
54683;SDS011;40582;53.100;6.686;2022-12-18T15:46:05;21.83;;;14.60;;
54683;SDS011;40582;53.100;6.686;2022-12-18T15:48:39;31.10;;;20.33;;
54683;SDS011;40582;53.100;6.686;2022-12-18T15:51:11;27.45;;;18.33;;
54683;SDS011;40582;53.100;6.686;2022-12-18T15:53:43;20.58;;;14.13;;
54683;SDS011;40582;53.100;6.686;2022-12-18T15:56:10;20.73;;;15.30;;
54683;SDS011;40582;53.100;6.686;2022-12-18T16:01:26;19.48;;;13.63;;
54683;SDS011;40582;53.100;6.686;2022-12-18T16:03:53;17.73;;;13.15;;
54683;SDS011;40582;53.100;6.686;2022-12-18T16:06:19;20.42;;;13.65;;
54683;SDS011;40582;53.100;6.686;2022-12-18T16:08:45;26.83;;;14.43;;
54683;SDS011;40582;53.100;6.686;2022-12-18T16:11:29;20.55;;;15.00;;
54683;SDS011;40582;53.100;6.686;2022-12-18T16:16:39;22.10;;;14.52;;
54683;SDS011;40582;53.100;6.686;2022-12-18T16:19:04;19.17;;;13.63;;
54683;SDS011;40582;53.100;6.686;2022-12-18T16:21:30;21.75;;;13.20;;
54683;SDS011;40582;53.100;6.686;2022-12-18T16:23:55;18.42;;;12.70;;
54683;SDS011;40582;53.100;6.686;2022-12-18T16:26:21;18.45;;;13.18;;
54683;SDS011;40582;53.100;6.686;2022-12-18T16:28:47;19.90;;;13.73;;